Time;durP1;ratioP1;P1;durP2;ratioP2;P2;SDS_P1;SDS_P2;PMS_P1;PMS_P2;Temp;Humidity;BMP_temperature;BMP_pressure;BME280_temperature;BME280_humidity;BME280_pressure;Samples;Min_cycle;Max_cycle;Signal;HPM_P1;HPM_P2
2021/12/02 00:01:57;;;;;;;12.23;7.55;;;;;;;7.46;69.95;97734.38;2191089;79;27700;-58
2021/12/02 00:04:58;;;;;;;17.45;9.43;;;;;;;7.39;70.06;97734.47;2184340;80;30889;-58
2021/12/02 00:08:00;;;;;;;15.13;8.85;;;;;;;7.33;70.12;97734.47;2183730;80;31108;-58
2021/12/02 00:11:01;;;;;;;20.82;12.73;;;;;;;7.26;70.15;97737.27;2176060;80;34122;-58
2021/12/02 00:14:09;;;;;;;12.45;7.03;;;;;;;7.20;70.26;97736.39;2183031;80;29339;-58
2021/12/02 00:17:13;;;;;;;19.75;10.50;;;;;;;7.14;70.31;97735.06;2173325;80;27732;-57
2021/12/02 00:24:02;;;;;;;6.78;3.70;;;;;;;7.03;70.47;97736.38;2174312;80;31556;-59
2021/12/02 00:27:09;;;;;;;6.50;4.25;;;;;;;6.97;70.49;97741.66;2181223;80;33085;-58
2021/12/02 00:30:11;;;;;;;3.05;2.35;;;;;;;6.90;70.55;97737.29;2203409;80;29350;-60
2021/12/02 00:33:13;;;;;;;2.95;2.00;;;;;;;6.88;70.60;97743.70;2170451;80;27609;-57
2021/12/02 00:36:17;;;;;;;4.00;1.98;;;;;;;6.86;70.64;97753.15;2173910;80;30766;-57
2021/12/02 00:39:20;;;;;;;5.40;2.02;;;;;;;6.84;70.67;97748.42;2168157;82;31195;-57
2021/12/02 00:42:21;;;;;;;5.15;1.95;;;;;;;6.85;70.76;97748.79;2168318;81;32952;-58
2021/12/02 00:45:23;;;;;;;3.50;2.40;;;;;;;6.87;70.86;97757.98;2168272;82;29363;-58
2021/12/02 00:48:24;;;;;;;3.55;2.47;;;;;;;6.90;70.82;97763.91;2168755;81;27718;-58
2021/12/02 00:51:28;;;;;;;3.27;1.98;;;;;;;6.94;70.87;97762.72;2142652;83;28889;-61
2021/12/02 00:54:31;;;;;;;3.22;1.98;;;;;;;6.99;70.81;97765.89;2164048;81;31708;-61
2021/12/02 00:57:33;;;;;;;4.85;1.87;;;;;;;7.06;70.56;97764.06;2169902;80;32957;-60
2021/12/02 01:00:35;;;;;;;2.42;1.32;;;;;;;7.12;70.20;97766.27;2133547;81;29151;-59
2021/12/02 01:03:37;;;;;;;5.30;1.70;;;;;;;7.16;69.84;97774.41;2171767;81;28275;-59
2021/12/02 01:06:40;;;;;;;1.98;1.60;;;;;;;7.20;69.64;97777.17;2182048;81;28758;-58
2021/12/02 01:09:42;;;;;;;2.95;1.67;;;;;;;7.22;69.29;97765.92;2169639;81;31050;-59
2021/12/02 01:12:44;;;;;;;2.65;1.40;;;;;;;7.24;69.01;97773.31;2181841;80;33044;-69
2021/12/02 01:15:46;;;;;;;1.72;1.15;;;;;;;7.27;68.68;97779.73;2179536;80;29504;-59
2021/12/02 01:18:48;;;;;;;2.58;1.25;;;;;;;7.33;68.62;97773.09;2182077;80;27627;-59
2021/12/02 01:21:50;;;;;;;3.58;1.67;;;;;;;7.39;68.22;97771.77;2208933;80;28742;-69
2021/12/02 01:24:51;;;;;;;5.28;2.20;;;;;;;7.44;68.19;97775.79;2194108;80;31046;-64
2021/12/02 01:27:53;;;;;;;3.65;2.20;;;;;;;7.50;67.91;97772.27;2187741;80;32951;-57
2021/12/02 01:30:55;;;;;;;1.77;1.32;;;;;;;7.54;67.81;97774.56;2181230;80;29364;-60
2021/12/02 01:34:07;;;;;;;2.25;1.15;;;;;;;7.58;67.76;97772.53;2186559;80;27632;-58
2021/12/02 01:37:10;;;;;;;1.90;1.10;;;;;;;7.63;67.55;97770.33;2201589;80;30875;-70
2021/12/02 01:40:12;;;;;;;1.17;0.88;;;;;;;7.66;67.42;97780.75;2179399;80;33180;-62
2021/12/02 01:43:17;;;;;;;0.70;0.70;;;;;;;7.71;66.47;97805.23;2191273;80;33535;-69
2021/12/02 01:46:24;;;;;;;0.62;0.50;;;;;;;7.78;67.44;97824.25;2189308;80;29376;-58
2021/12/02 01:49:31;;;;;;;1.25;0.70;;;;;;;7.79;67.09;97821.09;2142950;83;27706;-62
2021/12/02 01:52:32;;;;;;;0.75;0.75;;;;;;;7.77;67.18;97801.73;2144099;82;28671;-59
2021/12/02 01:55:35;;;;;;;1.50;0.75;;;;;;;7.72;66.93;97798.94;2197759;79;31102;-59
2021/12/02 01:58:46;;;;;;;0.45;0.45;;;;;;;7.68;66.73;97812.13;2219144;79;32967;-60
2021/12/02 02:01:52;;;;;;;0.80;0.45;;;;;;;7.62;65.58;97812.59;2224003;79;29356;-65
2021/12/02 02:04:53;;;;;;;2.17;0.40;;;;;;;7.53;65.38;97811.49;2191727;79;27703;-58
2021/12/02 02:08:08;;;;;;;1.22;0.55;;;;;;;7.45;64.97;97824.08;2199287;80;29950;-59
2021/12/02 02:11:11;;;;;;;0.35;0.35;;;;;;;7.36;64.82;97818.14;2200524;80;30870;-68
2021/12/02 02:14:12;;;;;;;0.37;0.30;;;;;;;7.25;64.78;97817.62;2189702;80;35022;-57
2021/12/02 02:17:26;;;;;;;1.30;0.47;;;;;;;7.18;64.58;97818.20;2181765;81;29361;-62
2021/12/02 02:20:37;;;;;;;1.32;0.37;;;;;;;7.12;64.64;97831.50;2196016;80;27662;-60
2021/12/02 02:23:46;;;;;;;0.75;0.20;;;;;;;7.08;64.56;97838.88;2190916;80;28728;-57
2021/12/02 02:26:44;;;;;;;0.62;0.50;;;;;;;7.08;64.48;97852.66;2203995;80;31028;-57
2021/12/02 02:29:45;;;;;;;0.40;0.40;;;;;;;7.07;64.50;97843.84;2194690;80;33100;-57
2021/12/02 02:32:51;;;;;;;0.80;0.40;;;;;;;7.05;64.25;97844.43;2194748;79;30241;-56
2021/12/02 02:35:52;;;;;;;2.42;0.50;;;;;;;7.00;64.17;97854.56;2195623;80;27674;-58
2021/12/02 02:39:02;;;;;;;2.27;0.60;;;;;;;6.92;64.33;97857.80;2194863;80;30883;-58
2021/12/02 02:42:06;;;;;;;0.80;0.40;;;;;;;6.84;64.23;97861.52;2183741;80;31071;-58
2021/12/02 02:45:08;;;;;;;1.27;0.40;;;;;;;6.74;64.32;97869.33;2192523;80;32988;-58
2021/12/02 02:48:10;;;;;;;1.27;0.40;;;;;;;6.65;64.15;97869.52;2182014;80;29340;-58
2021/12/02 02:51:11;;;;;;;0.28;0.28;;;;;;;6.57;64.25;97876.36;2182230;81;28003;-59
2021/12/02 02:54:15;;;;;;;2.47;0.72;;;;;;;6.48;64.29;97872.55;2191102;80;28675;-58
2021/12/02 02:57:23;;;;;;;1.62;0.90;;;;;;;6.42;64.47;97883.16;2206240;80;31072;-58
2021/12/02 03:00:31;;;;;;;0.90;0.50;;;;;;;6.37;64.73;97895.92;2190224;80;33136;-57
2021/12/02 03:03:40;;;;;;;1.25;0.78;;;;;;;6.35;64.68;97885.88;2192244;80;29407;-58
2021/12/02 03:06:52;;;;;;;1.15;0.40;;;;;;;6.32;64.86;97884.29;2182275;80;27617;-58
2021/12/02 03:13:12;;;;;;;1.62;0.98;;;;;;;6.25;65.04;97893.65;2220273;80;33195;-59
2021/12/02 03:19:28;;;;;;;1.92;0.60;;;;;;;6.12;65.17;97913.63;2182388;80;30033;-70
2021/12/02 03:22:33;;;;;;;;;;;;;;;6.04;65.39;97914.13;2187327;80;27649;-64
2021/12/02 03:25:35;;;;;;;2.08;0.80;;;;;;;5.98;65.56;97916.34;2114783;83;29462;-58
2021/12/02 03:28:36;;;;;;;3.35;0.80;;;;;;;5.88;65.76;97920.11;2161506;81;31051;-58
2021/12/02 03:31:38;;;;;;;0.50;0.50;;;;;;;5.81;65.94;97918.84;2146327;82;32960;-69
2021/12/02 03:34:41;;;;;;;2.67;1.40;;;;;;;5.76;66.12;97920.50;2182863;80;30023;-67
2021/12/02 03:37:42;;;;;;;3.62;0.80;;;;;;;5.71;66.29;97912.81;2139423;82;28221;-69
2021/12/02 03:40:43;;;;;;;0.95;0.53;;;;;;;5.71;66.42;97918.13;2197755;80;29061;-64
2021/12/02 03:43:48;;;;;;;1.47;0.72;;;;;;;5.69;66.50;97925.38;2143036;83;31989;-67
2021/12/02 03:46:51;;;;;;;1.25;0.80;;;;;;;5.67;66.57;97936.58;2168468;82;35211;-64
2021/12/02 03:49:53;;;;;;;3.67;0.75;;;;;;;5.64;66.60;97934.13;2145142;81;29422;-58
2021/12/02 03:52:54;;;;;;;4.22;0.82;;;;;;;5.62;66.65;97932.05;2170812;80;27762;-58
2021/12/02 03:55:56;;;;;;;1.17;0.78;;;;;;;5.59;66.68;97925.15;2147259;81;30124;-61
2021/12/02 03:59:01;;;;;;;1.05;0.98;;;;;;;5.59;66.78;97938.89;2157504;81;32124;-63
2021/12/02 04:02:04;;;;;;;1.75;0.68;;;;;;;5.59;66.79;97937.10;2158820;81;33558;-59
2021/12/02 04:05:07;;;;;;;3.30;1.52;;;;;;;5.58;66.70;97950.47;2166596;81;29273;-58
2021/12/02 04:08:11;;;;;;;1.92;0.90;;;;;;;5.55;66.62;97954.19;2216743;79;27744;-58
2021/12/02 04:11:33;;;;;;;2.25;0.98;;;;;;;5.54;66.56;97962.27;2214279;79;29902;-75
2021/12/02 04:14:38;;;;;;;1.72;1.22;;;;;;;5.52;66.62;97969.48;2207806;79;31425;-67
2021/12/02 04:17:43;;;;;;;2.08;1.00;;;;;;;5.46;66.58;97964.11;2214502;79;34127;-70
2021/12/02 04:20:45;;;;;;;1.52;0.80;;;;;;;5.40;66.64;97971.98;2203368;79;29677;-71
2021/12/02 04:23:47;;;;;;;2.87;1.52;;;;;;;5.33;66.73;97966.23;2227219;79;27610;-70
2021/12/02 04:26:49;;;;;;;2.47;1.92;;;;;;;5.26;66.71;97970.26;2209763;79;29144;-58
2021/12/02 04:29:51;;;;;;;1.32;1.02;;;;;;;5.22;66.77;97981.16;2213855;79;31384;-62
2021/12/02 04:32:53;;;;;;;1.55;0.90;;;;;;;5.17;66.79;97978.80;2211909;79;33073;-69
2021/12/02 04:35:55;;;;;;;3.17;0.70;;;;;;;5.10;66.88;97995.60;2214396;79;30603;-67
2021/12/02 04:38:57;;;;;;;2.15;0.70;;;;;;;5.04;66.89;97996.02;2215600;79;27653;-64
2021/12/02 04:41:59;;;;;;;0.75;0.75;;;;;;;4.97;67.00;97997.34;2212916;79;28814;-69
2021/12/02 04:45:00;;;;;;;2.05;0.80;;;;;;;4.92;67.04;98013.56;2215790;79;31883;-58
2021/12/02 04:48:02;;;;;;;3.80;1.82;;;;;;;4.87;67.00;98016.98;2229157;79;33334;-72
2021/12/02 04:51:04;;;;;;;1.25;0.93;;;;;;;4.81;67.04;98025.31;2219973;79;29979;-71
2021/12/02 04:54:06;;;;;;;2.08;0.90;;;;;;;4.74;67.03;98028.83;2214071;79;27695;-60
2021/12/02 04:57:08;;;;;;;3.50;0.62;;;;;;;4.67;66.98;98027.03;2228971;79;29057;-72
2021/12/02 05:00:11;;;;;;;5.60;1.30;;;;;;;4.61;66.99;98024.78;2231315;79;31737;-69
2021/12/02 05:03:13;;;;;;;2.50;1.00;;;;;;;4.55;67.03;98035.75;2124523;82;33787;-63
2021/12/02 05:06:15;;;;;;;2.83;1.20;;;;;;;4.50;67.00;98037.83;2185848;81;29281;-71
2021/12/02 05:09:17;;;;;;;5.80;0.80;;;;;;;4.45;67.00;98047.39;2185733;81;27608;-68
2021/12/02 05:12:19;;;;;;;2.42;1.00;;;;;;;4.39;67.02;98042.00;2185542;81;29902;-59
2021/12/02 05:15:21;;;;;;;1.67;0.80;;;;;;;4.34;67.02;98048.53;2185221;81;30246;-69
2021/12/02 05:18:23;;;;;;;6.70;1.10;;;;;;;4.29;67.09;98052.80;2186052;81;32993;-67
2021/12/02 05:21:25;;;;;;;2.10;1.20;;;;;;;4.23;67.07;98044.71;2185462;81;29755;-64
2021/12/02 05:24:26;;;;;;;6.55;1.22;;;;;;;4.19;67.05;98047.64;2185566;81;27779;-67
2021/12/02 05:27:29;;;;;;;5.58;1.17;;;;;;;4.14;67.12;98053.72;2185589;81;29089;-73
2021/12/02 05:30:30;;;;;;;6.00;2.60;;;;;;;4.10;67.24;98059.64;2168297;81;31665;-63
2021/12/02 05:33:32;;;;;;;2.83;1.30;;;;;;;4.10;67.35;98049.92;2176552;81;32870;-70
2021/12/02 05:36:34;;;;;;;3.05;1.22;;;;;;;4.13;67.42;98052.01;2185998;81;29800;-64
2021/12/02 05:39:35;;;;;;;6.08;1.20;;;;;;;4.14;67.41;98050.58;2185814;81;27683;-68
2021/12/02 05:42:37;;;;;;;1.15;1.00;;;;;;;4.13;67.39;98044.89;2185485;81;29162;-73
2021/12/02 05:45:39;;;;;;;1.60;0.93;;;;;;;4.10;67.31;98049.92;2185802;81;32222;-69
2021/12/02 05:48:40;;;;;;;4.40;0.90;;;;;;;4.07;67.24;98046.12;2186030;81;33127;-62
2021/12/02 05:51:42;;;;;;;5.17;1.60;;;;;;;4.08;67.19;98041.66;2184495;81;30450;-62
2021/12/02 05:54:44;;;;;;;4.58;1.32;;;;;;;4.06;67.18;98043.54;2185723;81;27682;-61
2021/12/02 05:57:46;;;;;;;2.27;1.00;;;;;;;4.04;67.18;98043.64;2185839;80;29808;-73
2021/12/02 06:00:48;;;;;;;6.10;1.17;;;;;;;4.03;67.12;98042.42;2185599;81;31286;-59
2021/12/02 06:03:50;;;;;;;3.37;0.80;;;;;;;4.00;67.16;98042.60;2188166;80;32973;-67
2021/12/02 06:06:53;;;;;;;3.52;1.00;;;;;;;3.95;67.08;98043.72;2204845;80;29749;-73
2021/12/02 06:09:56;;;;;;;5.70;1.62;;;;;;;3.92;67.05;98047.03;2194692;80;28081;-72
2021/12/02 06:12:58;;;;;;;3.10;1.35;;;;;;;3.90;67.10;98046.27;2208394;80;28687;-59
2021/12/02 06:16:00;;;;;;;4.58;1.10;;;;;;;3.87;67.00;98055.70;2212790;80;31094;-71
2021/12/02 06:19:02;;;;;;;2.95;1.17;;;;;;;3.83;67.03;98049.75;2198763;80;34156;-67
2021/12/02 06:22:04;;;;;;;2.90;1.17;;;;;;;3.80;67.00;98054.77;2192093;80;29534;-62
2021/12/02 06:28:16;;;;;;;4.17;1.80;;;;;;;3.76;67.13;98066.47;2201011;80;29191;-66
2021/12/02 06:31:18;;;;;;;5.72;1.80;;;;;;;3.74;67.10;98079.39;2179012;81;30437;-61
2021/12/02 06:34:19;;;;;;;4.20;1.30;;;;;;;3.71;67.11;98083.08;2187909;80;33346;-67
2021/12/02 06:37:22;;;;;;;3.98;1.32;;;;;;;3.72;67.13;98091.89;2214418;80;29340;-58
2021/12/02 06:40:24;;;;;;;5.15;1.65;;;;;;;3.74;67.13;98100.58;2205607;80;27674;-75
2021/12/02 06:43:25;;;;;;;7.58;1.32;;;;;;;3.78;67.23;98102.11;2204998;78;28299;-77
2021/12/02 06:46:29;;;;;;;2.47;1.42;;;;;;;3.83;67.13;98101.84;2196087;80;31404;-63
2021/12/02 06:49:32;;;;;;;1.98;1.10;;;;;;;3.87;67.06;98111.33;2186000;80;34084;-68
2021/12/02 06:52:34;;;;;;;4.72;1.37;;;;;;;3.88;66.93;98117.02;2205386;80;29508;-70
2021/12/02 06:55:36;;;;;;;8.35;1.52;;;;;;;3.88;66.77;98118.34;2188716;80;27719;-58
2021/12/02 06:58:38;;;;;;;2.87;1.12;;;;;;;3.90;66.80;98121.75;2201127;80;29190;-57
2021/12/02 07:01:39;;;;;;;5.97;1.37;;;;;;;3.94;66.72;98119.31;2211508;80;32257;-57
2021/12/02 07:04:41;;;;;;;4.37;1.52;;;;;;;4.01;66.81;98127.77;2206166;80;33411;-58
2021/12/02 07:07:45;;;;;;;19.15;1.80;;;;;;;4.09;66.83;98133.45;2147110;81;29991;-58
2021/12/02 07:10:47;;;;;;;7.53;2.05;;;;;;;4.18;66.67;98147.96;2152461;81;27715;-58
2021/12/02 07:13:54;;;;;;;5.78;2.33;;;;;;;4.27;66.66;98155.39;2195496;79;29882;-59
2021/12/02 07:16:54;;;;;;;3.92;2.00;;;;;;;4.35;66.53;98162.41;2194704;81;31246;-60
2021/12/02 07:19:59;;;;;;;6.97;3.45;;;;;;;4.44;66.35;98176.08;2217121;79;33676;-58
2021/12/02 07:23:05;;;;;;;3.12;1.92;;;;;;;4.50;66.19;98179.22;2229667;79;30307;-60
2021/12/02 07:26:08;;;;;;;8.73;1.85;;;;;;;4.58;66.20;98180.09;2195548;80;28055;-59
2021/12/02 07:29:11;;;;;;;4.00;2.00;;;;;;;4.65;66.01;98188.53;2197015;79;30032;-65
2021/12/02 07:32:14;;;;;;;8.90;2.08;;;;;;;4.71;65.97;98187.69;2199708;79;31588;-60
2021/12/02 07:35:17;;;;;;;3.65;1.57;;;;;;;4.79;65.85;98190.37;2227455;79;33575;-68
2021/12/02 07:38:19;;;;;;;3.08;1.12;;;;;;;4.86;65.71;98199.19;2233594;79;29583;-68
2021/12/02 07:41:21;;;;;;;4.00;1.10;;;;;;;4.95;65.78;98210.18;2206500;79;27643;-66
2021/12/02 07:44:22;;;;;;;3.98;1.42;;;;;;;5.02;65.62;98212.86;2225319;79;28830;-69
2021/12/02 07:47:26;;;;;;;3.50;1.52;;;;;;;5.08;65.55;98224.41;2234874;79;31781;-70
2021/12/02 07:50:27;;;;;;;3.70;1.10;;;;;;;5.15;65.42;98231.06;2215702;79;33747;-62
2021/12/02 07:53:30;;;;;;;4.65;1.60;;;;;;;5.22;65.30;98233.32;2107269;84;30451;-69
2021/12/02 07:56:33;;;;;;;3.80;1.32;;;;;;;5.29;65.33;98225.37;2195740;81;27642;-70
2021/12/02 07:59:35;;;;;;;8.60;1.60;;;;;;;5.37;65.16;98228.42;2195930;81;28851;-69
2021/12/02 08:02:37;;;;;;;2.58;1.50;;;;;;;5.43;64.88;98228.02;2195378;81;32322;-58
2021/12/02 08:05:41;;;;;;;4.70;1.42;;;;;;;5.50;64.76;98236.46;2111917;83;33331;-65
2021/12/02 08:08:45;;;;;;;6.20;1.30;;;;;;;5.56;64.55;98233.89;2167451;81;29452;-63
2021/12/02 08:11:47;;;;;;;4.83;1.73;;;;;;;5.60;64.40;98248.69;2189623;81;27960;-67
2021/12/02 08:14:50;;;;;;;2.17;1.45;;;;;;;5.64;64.45;98247.56;2189686;81;29084;-67
2021/12/02 08:17:53;;;;;;;7.05;2.00;;;;;;;5.70;64.44;98248.52;2189652;81;31850;-64
2021/12/02 08:20:56;;;;;;;5.70;1.20;;;;;;;5.74;64.12;98253.16;2189539;81;33122;-58
2021/12/02 08:23:58;;;;;;;3.12;1.15;;;;;;;5.75;63.74;98249.05;2189196;81;30621;-63
2021/12/02 08:27:00;;;;;;;3.75;1.37;;;;;;;5.80;63.92;98253.23;2189674;81;27647;-70
2021/12/02 08:30:05;;;;;;;8.28;2.00;;;;;;;5.82;63.73;98252.17;2189292;81;30104;-64
2021/12/02 08:33:08;;;;;;;4.80;1.63;;;;;;;5.84;63.53;98248.11;2189898;81;31067;-63
2021/12/02 08:36:10;;;;;;;3.27;1.40;;;;;;;5.87;63.55;98245.27;2162145;81;33844;-66
2021/12/02 08:39:19;;;;;;;6.58;2.02;;;;;;;5.86;63.41;98252.86;2189154;81;29544;-61
2021/12/02 08:42:18;;;;;;;2.90;1.70;;;;;;;5.83;63.56;98251.23;2188154;81;27730;-61
2021/12/02 08:45:21;;;;;;;3.40;1.77;;;;;;;5.85;63.65;98258.63;2189238;81;29909;-60
2021/12/02 08:48:23;;;;;;;5.10;2.37;;;;;;;5.87;63.72;98247.92;2189072;81;31092;-62
2021/12/02 08:51:27;;;;;;;6.60;1.80;;;;;;;5.93;63.78;98255.48;2189295;81;34206;-60
2021/12/02 08:54:30;;;;;;;;;;;;;;;5.96;63.65;98269.91;2191675;81;29383;-58
2021/12/02 08:57:31;;;;;;;4.25;1.85;;;;;;;6.00;63.41;98274.58;2189037;81;27646;-67
2021/12/02 09:00:35;;;;;;;4.65;1.40;;;;;;;6.00;62.96;98274.58;2185475;81;29084;-62
2021/12/02 09:03:38;;;;;;;2.77;1.30;;;;;;;6.03;62.71;98282.37;2185025;81;31033;-72
2021/12/02 09:06:40;;;;;;;6.00;1.30;;;;;;;6.06;62.25;98280.84;2209016;79;32765;-63
2021/12/02 09:09:42;;;;;;;5.03;1.22;;;;;;;6.08;62.15;98265.17;2204976;79;29485;-64
2021/12/02 09:12:46;;;;;;;5.42;1.20;;;;;;;6.13;61.76;98274.17;2204863;80;27619;-59
2021/12/02 09:15:50;;;;;;;9.13;5.87;;;;;;;6.18;61.59;98280.55;2205248;80;29490;-58
2021/12/02 09:18:57;;;;;;;5.72;1.30;;;;;;;6.23;61.49;98281.95;2204709;80;32157;-58
2021/12/02 09:21:59;;;;;;;3.40;1.10;;;;;;;6.29;61.64;98290.00;2194059;80;32639;-68
2021/12/02 09:25:02;;;;;;;5.28;1.77;;;;;;;6.36;61.34;98294.44;2173778;81;30378;-60
2021/12/02 09:28:04;;;;;;;2.92;1.40;;;;;;;6.42;61.55;98293.19;2173931;81;27726;-66
2021/12/02 09:31:06;;;;;;;3.83;1.27;;;;;;;6.50;61.60;98302.87;2213710;80;29231;-68
2021/12/02 09:34:10;;;;;;;3.92;1.65;;;;;;;6.59;61.42;98300.08;2143097;83;32287;-71
2021/12/02 09:37:15;;;;;;;4.95;1.75;;;;;;;6.72;61.05;98304.97;2187029;80;34154;-73
2021/12/02 09:40:18;;;;;;;7.85;2.35;;;;;;;6.85;61.36;98310.34;2191397;81;29618;-67
2021/12/02 09:43:20;;;;;;;6.50;1.90;;;;;;;7.07;61.03;98313.73;2194553;81;27857;-73
2021/12/02 09:46:22;;;;;;;4.50;1.45;;;;;;;7.26;60.40;98317.33;2194618;81;28590;-63
2021/12/02 09:49:32;;;;;;;6.67;1.45;;;;;;;7.44;59.90;98307.70;2192435;81;32261;-66
2021/12/02 09:52:40;;;;;;;6.90;1.82;;;;;;;7.56;59.60;98312.17;2187031;81;34204;-66
2021/12/02 09:55:51;;;;;;;8.23;1.87;;;;;;;7.66;59.58;98320.38;2187562;81;30344;-59
2021/12/02 09:58:49;;;;;;;8.48;1.98;;;;;;;7.71;59.21;98316.92;2185682;81;27646;-65
2021/12/02 10:01:57;;;;;;;4.07;1.70;;;;;;;7.74;59.31;98327.84;2187739;81;28704;-65
2021/12/02 10:05:04;;;;;;;5.25;1.32;;;;;;;7.72;57.65;98327.09;2187184;81;31795;-71
2021/12/02 10:08:12;;;;;;;7.33;1.77;;;;;;;7.74;58.05;98343.38;2187206;81;33730;-66
2021/12/02 10:11:15;;;;;;;7.35;1.27;;;;;;;7.82;57.82;98337.50;2186659;81;29000;-68
2021/12/02 10:14:33;;;;;;;5.08;1.40;;;;;;;7.96;57.35;98332.51;2190553;80;27738;-68
2021/12/02 10:17:37;;;;;;;5.53;1.80;;;;;;;8.02;56.86;98352.58;2195600;81;29502;-68
2021/12/02 10:20:43;;;;;;;5.17;1.70;;;;;;;7.98;57.00;98355.09;2195653;81;31079;-64
2021/12/02 10:23:46;;;;;;;6.78;1.95;;;;;;;7.87;56.61;98355.84;2203189;79;37130;-67
2021/12/02 10:26:54;;;;;;;5.22;1.72;;;;;;;7.65;56.22;98365.80;2202758;80;29468;-70
2021/12/02 10:29:56;;;;;;;5.30;2.17;;;;;;;7.37;54.99;98353.02;2192546;78;27773;-63
2021/12/02 10:32:57;;;;;;;9.10;2.12;;;;;;;7.14;55.80;98360.77;2197144;79;28630;-71
2021/12/02 10:36:02;;;;;;;8.78;2.50;;;;;;;7.00;56.38;98352.36;2190596;81;32295;-65
2021/12/02 10:39:20;;;;;;;8.73;2.37;;;;;;;6.95;56.05;98351.84;2190084;81;33617;-61
2021/12/02 10:42:23;;;;;;;5.10;2.08;;;;;;;6.91;55.84;98349.00;2191264;81;29381;-60
2021/12/02 10:45:30;;;;;;;6.62;2.22;;;;;;;6.88;56.21;98353.19;2195396;79;27680;-60
2021/12/02 10:48:53;;;;;;;11.73;1.90;;;;;;;6.81;56.27;98353.58;2196242;79;29458;-59
2021/12/02 10:51:58;;;;;;;4.70;2.02;;;;;;;6.73;55.97;98355.91;2195770;81;32248;-59
2021/12/02 10:55:05;;;;;;;5.53;2.15;;;;;;;6.66;56.08;98350.13;2222876;79;33752;-57
2021/12/02 10:58:07;;;;;;;4.95;1.30;;;;;;;6.59;56.13;98342.16;2233933;79;30454;-60
2021/12/02 11:01:09;;;;;;;8.33;3.12;;;;;;;6.52;55.90;98357.67;2238802;79;27720;-58
2021/12/02 11:04:13;;;;;;;8.33;2.40;;;;;;;6.47;56.04;98357.09;2238655;79;29899;-59
2021/12/02 11:07:25;;;;;;;5.80;2.72;;;;;;;6.44;55.78;98349.80;2147056;82;32039;-58
2021/12/02 11:10:34;;;;;;;8.93;2.45;;;;;;;6.40;55.74;98359.80;2142058;82;33818;-62
2021/12/02 11:13:40;;;;;;;6.28;1.62;;;;;;;6.30;55.88;98363.51;2109884;84;30540;-66
2021/12/02 11:16:41;;;;;;;4.53;1.57;;;;;;;6.24;55.72;98371.86;2117952;83;27720;-65
2021/12/02 11:19:46;;;;;;;5.25;1.60;;;;;;;6.13;55.77;98369.03;2145576;83;29750;-62
2021/12/02 11:23:00;;;;;;;4.47;1.70;;;;;;;6.02;55.76;98373.23;2132330;82;31926;-64
2021/12/02 11:26:10;;;;;;;5.08;2.05;;;;;;;5.92;55.81;98370.71;2138147;83;32868;-65
2021/12/02 11:29:15;;;;;;;7.03;2.30;;;;;;;5.88;56.13;98377.16;2146931;82;29333;-63
2021/12/02 11:32:43;;;;;;;7.87;2.02;;;;;;;5.86;56.00;98381.73;2145836;83;27655;-65
2021/12/02 11:35:47;;;;;;;5.30;2.12;;;;;;;5.85;56.03;98381.36;2145515;83;29756;-58
2021/12/02 11:38:56;;;;;;;3.55;1.40;;;;;;;5.85;55.82;98377.37;2139639;83;31076;-58
2021/12/02 11:41:58;;;;;;;7.97;1.67;;;;;;;5.85;56.26;98381.36;2166650;81;33909;-58
2021/12/02 11:45:00;;;;;;;4.08;1.50;;;;;;;5.86;55.76;98393.70;2176769;81;29149;-62
2021/12/02 11:48:03;;;;;;;3.70;1.47;;;;;;;5.86;55.56;98391.04;2176604;81;27648;-60
2021/12/02 11:51:08;;;;;;;3.45;1.50;;;;;;;5.87;55.50;98395.41;2176285;81;28766;-57
2021/12/02 11:54:11;;;;;;;6.95;1.65;;;;;;;5.86;55.54;98381.73;2144201;81;31030;-70
2021/12/02 11:57:13;;;;;;;8.13;2.17;;;;;;;5.85;55.75;98395.97;2139000;82;33828;-70
2021/12/02 12:00:21;;;;;;;6.62;2.42;;;;;;;5.81;55.75;98408.56;2139315;83;29325;-57
2021/12/02 12:03:48;;;;;;;11.30;2.08;;;;;;;5.76;55.94;98398.23;2159377;81;28185;-60
2021/12/02 12:06:58;;;;;;;5.72;1.80;;;;;;;5.75;56.01;98408.95;2169663;81;29160;-63
2021/12/02 12:10:17;;;;;;;7.42;1.70;;;;;;;5.73;56.22;98404.20;2152221;81;31459;-55
2021/12/02 12:13:22;;;;;;;6.80;2.35;;;;;;;5.74;56.09;98405.92;2153024;82;33049;-63
2021/12/02 12:16:45;;;;;;;13.85;4.28;;;;;;;5.72;56.38;98407.32;2163323;81;30217;-65
2021/12/02 12:19:48;;;;;;;11.83;2.27;;;;;;;5.73;56.33;98401.55;2193233;81;27640;-57
2021/12/02 12:22:50;;;;;;;6.20;2.60;;;;;;;5.72;56.54;98396.69;2195488;81;29473;-63
2021/12/02 12:26:21;;;;;;;12.93;6.12;;;;;;;5.72;56.40;98399.34;2195517;81;31211;-60
2021/12/02 12:29:26;;;;;;;9.43;3.02;;;;;;;5.74;56.52;98404.59;2089463;84;34987;-60
2021/12/02 12:32:40;;;;;;;9.28;2.47;;;;;;;5.73;56.73;98403.72;2083434;84;43773;-71
2021/12/02 12:38:48;;;;;;;10.82;2.72;;;;;;;5.76;56.85;98398.71;2143581;82;28692;-56
2021/12/02 12:42:23;;;;;;;5.50;2.58;;;;;;;5.76;57.02;98409.34;2129959;83;32209;-57
2021/12/02 12:45:38;;;;;;;11.78;2.67;;;;;;;5.77;57.04;98411.05;2130804;83;33095;-57
2021/12/02 12:48:40;;;;;;;8.35;2.52;;;;;;;5.75;57.12;98409.80;2084397;84;29481;-56
2021/12/02 12:51:53;;;;;;;11.05;3.50;;;;;;;5.74;56.94;98417.39;2070311;86;28064;-56
2021/12/02 12:55:18;;;;;;;9.93;3.42;;;;;;;5.75;57.06;98415.60;2145492;82;28655;-57
2021/12/02 12:58:29;;;;;;;5.67;2.92;;;;;;;5.73;57.17;98420.15;2185775;81;31031;-58
2021/12/02 13:01:36;;;;;;;8.13;2.70;;;;;;;5.72;57.18;98413.13;2218207;80;32975;-59
2021/12/02 13:04:54;;;;;;;11.10;5.70;;;;;;;5.71;57.17;98412.73;2212348;80;29429;-60
2021/12/02 13:08:17;;;;;;;17.20;5.20;;;;;;;5.69;57.15;98416.83;2179860;81;27706;-62
2021/12/02 13:11:23;;;;;;;4.53;2.35;;;;;;;5.67;56.82;98416.06;2178886;81;28769;-59
2021/12/02 13:14:26;;;;;;;9.90;2.70;;;;;;;5.66;56.30;98417.47;2110994;82;31244;-57
2021/12/02 13:17:42;;;;;;;5.15;2.00;;;;;;;5.62;56.01;98424.77;2218176;80;34164;-57
2021/12/02 13:20:46;;;;;;;7.12;3.00;;;;;;;5.60;55.87;98421.34;2150752;82;30088;-58
2021/12/02 13:24:01;;;;;;;20.50;7.05;;;;;;;5.56;55.67;98419.81;2218791;80;27590;-58
2021/12/02 13:27:08;;;;;;;5.67;1.90;;;;;;;5.51;55.55;98422.75;2045982;86;29367;-57
2021/12/02 13:30:15;;;;;;;8.55;3.47;;;;;;;5.48;55.36;98426.45;2056705;86;31777;-58
2021/12/02 13:33:17;;;;;;;8.13;3.77;;;;;;;5.42;55.29;98429.45;2056120;86;32959;-66
2021/12/02 13:36:39;;;;;;;10.68;2.15;;;;;;;5.38;55.35;98435.05;2056681;86;29433;-60
2021/12/02 13:39:43;;;;;;;6.78;2.40;;;;;;;5.33;55.21;98430.02;2057063;86;27723;-64
2021/12/02 13:42:45;;;;;;;7.90;2.85;;;;;;;5.26;55.23;98439.27;2056904;86;28895;-65
2021/12/02 13:45:47;;;;;;;7.83;2.15;;;;;;;5.21;55.17;98437.37;2057163;86;32248;-69
2021/12/02 13:49:13;;;;;;;9.48;3.62;;;;;;;5.16;55.24;98438.48;2058181;86;33865;-59
2021/12/02 13:52:21;;;;;;;7.95;2.92;;;;;;;5.11;55.02;98440.53;2058367;86;30249;-58
2021/12/02 13:55:46;;;;;;;8.80;2.08;;;;;;;5.06;55.28;98445.73;1997660;87;27799;-59
2021/12/02 13:58:48;;;;;;;22.20;9.45;;;;;;;5.01;55.09;98446.84;1998376;89;28670;-58
2021/12/02 14:01:59;;;;;;;10.35;3.80;;;;;;;4.94;54.97;98458.76;1974774;90;31288;-57
2021/12/02 14:05:01;;;;;;;8.68;2.77;;;;;;;4.89;55.16;98460.80;2012983;87;34088;-57
2021/12/02 14:08:09;;;;;;;8.65;2.02;;;;;;;4.84;55.09;98466.83;2025661;86;30531;-66
2021/12/02 14:11:11;;;;;;;6.87;2.85;;;;;;;4.77;55.14;98466.80;2026393;87;28151;-54
2021/12/02 14:14:20;;;;;;;8.63;2.05;;;;;;;4.71;55.20;98469.33;2005025;87;29545;-56
2021/12/02 14:17:22;;;;;;;5.65;2.50;;;;;;;4.64;54.87;98471.92;1993910;88;30699;-54
2021/12/02 14:20:43;;;;;;;9.63;3.62;;;;;;;4.57;55.20;98479.36;1993489;89;33828;-55
2021/12/02 14:23:52;;;;;;;14.63;6.20;;;;;;;4.49;55.26;98481.10;2008982;87;29495;-57
2021/12/02 14:26:51;;;;;;;7.45;3.25;;;;;;;4.41;55.28;98479.32;2056648;85;27818;-50
2021/12/02 14:30:15;;;;;;;10.38;3.25;;;;;;;4.33;55.32;98481.06;2072057;84;29925;-54
2021/12/02 14:33:27;;;;;;;7.60;3.77;;;;;;;4.25;55.41;98480.62;2071307;84;31118;-55
2021/12/02 14:36:39;;;;;;;13.48;5.62;;;;;;;4.17;55.60;98481.48;2071341;85;34140;-55
2021/12/02 14:39:41;;;;;;;8.35;3.20;;;;;;;4.10;55.77;98487.58;2048992;85;30127;-54
2021/12/02 14:42:44;;;;;;;11.97;4.20;;;;;;;4.02;55.92;98484.01;2037760;87;28118;-66
2021/12/02 14:45:49;;;;;;;10.13;3.92;;;;;;;3.94;55.84;98500.30;2003826;87;28827;-52
2021/12/02 14:49:11;;;;;;;10.23;4.30;;;;;;;3.89;56.04;98506.78;2005198;88;31053;-53
2021/12/02 14:52:25;;;;;;;13.90;4.37;;;;;;;3.81;56.07;98509.82;2034421;86;34140;-57
2021/12/02 14:55:34;;;;;;;9.50;3.13;;;;;;;3.73;56.18;98519.48;2093366;85;29453;-52
2021/12/02 14:58:37;;;;;;;15.78;5.67;;;;;;;3.65;56.23;98520.31;2093930;85;27783;-53